Time;durP1;ratioP1;P1;durP2;ratioP2;P2;SDS_P1;SDS_P2;PMS_P1;PMS_P2;Temp;Humidity;BMP_temperature;BMP_pressure;BME280_temperature;BME280_humidity;BME280_pressure;Samples;Min_cycle;Max_cycle;Signal;HPM_P1;HPM_P2
2023/03/15 00:02:07;;;;;;;5.10;2.20;;;10.50;59.20;;;;;;5017110;28;20041;-77
2023/03/15 00:04:34;;;;;;;4.65;2.67;;;10.40;59.10;;;;;;5016656;28;20140;-76
2023/03/15 00:07:00;;;;;;;4.88;2.67;;;10.40;59.20;;;;;;5016069;28;20073;-76
2023/03/15 00:09:26;;;;;;;3.55;2.10;;;10.40;59.10;;;;;;5022221;28;20022;-76
2023/03/15 00:11:56;;;;;;;4.97;2.88;;;10.40;58.90;;;;;;5018087;28;20053;-76
2023/03/15 00:14:22;;;;;;;4.63;2.28;;;10.40;58.60;;;;;;5016979;28;20393;-76
2023/03/15 00:16:48;;;;;;;4.93;2.60;;;10.40;58.70;;;;;;5016306;28;20053;-76
2023/03/15 00:19:14;;;;;;;4.57;2.53;;;10.40;58.80;;;;;;5022845;28;20492;-76
2023/03/15 00:21:42;;;;;;;4.50;2.47;;;10.40;58.80;;;;;;5022939;28;20060;-76
2023/03/15 00:24:10;;;;;;;3.90;2.50;;;10.40;58.80;;;;;;5017492;28;20033;-76
2023/03/15 00:26:36;;;;;;;6.05;2.65;;;10.40;58.50;;;;;;5019142;28;20096;-76
2023/03/15 00:29:03;;;;;;;4.00;2.50;;;10.40;58.50;;;;;;5022569;28;20041;-76
2023/03/15 00:31:29;;;;;;;4.22;2.15;;;10.40;58.50;;;;;;5023935;28;20125;-75
2023/03/15 00:33:55;;;;;;;3.80;2.05;;;10.30;58.30;;;;;;5019120;28;20156;-75
2023/03/15 00:36:24;;;;;;;6.20;2.83;;;10.40;58.40;;;;;;5001976;28;20029;-76
2023/03/15 00:38:52;;;;;;;5.18;2.80;;;10.40;58.30;;;;;;5021523;28;20038;-76
2023/03/15 00:41:20;;;;;;;5.85;2.30;;;10.40;58.30;;;;;;5018482;28;20064;-75
2023/03/15 00:43:47;;;;;;;4.65;2.47;;;10.30;58.40;;;;;;5015687;28;20058;-76
2023/03/15 00:46:14;;;;;;;4.47;2.53;;;10.30;58.30;;;;;;5021709;28;20034;-76
2023/03/15 00:48:41;;;;;;;3.47;2.40;;;10.30;58.20;;;;;;5019271;28;20095;-76
2023/03/15 00:51:13;;;;;;;4.82;2.35;;;10.30;58.30;;;;;;5016451;28;20041;-76
2023/03/15 00:53:42;;;;;;;3.42;2.40;;;10.30;58.30;;;;;;5022599;28;20038;-76
2023/03/15 00:56:11;;;;;;;3.15;2.40;;;10.30;58.40;;;;;;5014340;28;20140;-76
2023/03/15 00:58:37;;;;;;;3.95;2.33;;;10.30;58.30;;;;;;5003116;28;20037;-76
2023/03/15 01:01:12;;;;;;;4.18;2.65;;;10.30;58.40;;;;;;5019378;28;20030;-76
2023/03/15 01:03:39;;;;;;;5.32;2.30;;;10.30;58.30;;;;;;5001396;28;20065;-76
2023/03/15 01:06:11;;;;;;;3.75;2.60;;;10.30;58.40;;;;;;5017186;28;20037;-76
2023/03/15 01:08:37;;;;;;;4.57;3.00;;;10.30;58.50;;;;;;5016900;28;20520;-76
2023/03/15 01:11:05;;;;;;;5.88;3.08;;;10.30;58.60;;;;;;5014807;28;20641;-75
2023/03/15 01:13:31;;;;;;;5.53;2.85;;;10.30;58.70;;;;;;5031288;28;20049;-76
2023/03/15 01:15:57;;;;;;;4.00;2.70;;;10.20;58.60;;;;;;5000947;28;20492;-76
2023/03/15 01:18:24;;;;;;;10.18;3.58;;;10.20;58.80;;;;;;5016405;28;20083;-75
2023/03/15 01:20:50;;;;;;;5.85;2.80;;;10.20;58.70;;;;;;5019954;28;20021;-75
2023/03/15 01:23:18;;;;;;;3.25;2.45;;;10.20;58.70;;;;;;5015400;28;20029;-76
2023/03/15 01:25:46;;;;;;;5.93;2.90;;;10.20;59.00;;;;;;5017797;28;20171;-76
2023/03/15 01:28:12;;;;;;;5.15;2.88;;;10.20;58.90;;;;;;5002127;28;20033;-76
2023/03/15 01:30:38;;;;;;;6.53;2.90;;;10.20;59.00;;;;;;5018929;28;20060;-75
2023/03/15 01:33:05;;;;;;;5.13;2.80;;;10.20;59.00;;;;;;5015294;28;20186;-76
2023/03/15 01:35:31;;;;;;;5.28;2.80;;;10.20;59.00;;;;;;4989019;28;20041;-76
2023/03/15 01:37:57;;;;;;;4.97;2.75;;;10.20;59.40;;;;;;5015157;28;20025;-76
2023/03/15 01:40:23;;;;;;;5.55;2.90;;;10.20;59.30;;;;;;5016737;28;20120;-77
2023/03/15 01:43:10;;;;;;;6.13;2.83;;;10.20;59.40;;;;;;5014481;28;20040;-77
2023/03/15 01:46:12;;;;;;;5.93;2.97;;;10.20;59.20;;;;;;5001014;28;20468;-76
2023/03/15 01:49:03;;;;;;;5.18;2.83;;;10.20;59.50;;;;;;5022028;28;20515;-77
2023/03/15 01:51:43;;;;;;;5.95;3.03;;;10.20;59.40;;;;;;5021488;28;20059;-76
2023/03/15 01:54:26;;;;;;;5.85;3.30;;;10.20;59.40;;;;;;5015322;28;20049;-76
2023/03/15 01:57:07;;;;;;;5.43;2.72;;;10.20;59.50;;;;;;5002814;28;20057;-76
2023/03/15 01:59:41;;;;;;;4.90;2.92;;;10.20;59.40;;;;;;5015936;28;20052;-76
2023/03/15 02:02:08;;;;;;;6.93;3.20;;;10.20;59.50;;;;;;4982618;28;20500;-76
2023/03/15 02:04:48;;;;;;;6.00;3.28;;;10.20;59.40;;;;;;5002475;28;20030;-75
2023/03/15 02:07:19;;;;;;;7.43;2.97;;;10.20;59.40;;;;;;5016876;28;20129;-76
2023/03/15 02:10:00;;;;;;;5.05;3.10;;;10.20;59.70;;;;;;5005174;28;20040;-76
2023/03/15 02:12:30;;;;;;;5.63;3.15;;;10.20;59.60;;;;;;5003892;28;20439;-76
2023/03/15 02:14:59;;;;;;;5.72;3.03;;;10.20;59.60;;;;;;5002436;28;20029;-75
2023/03/15 02:17:34;;;;;;;5.63;2.95;;;10.20;59.60;;;;;;5014342;28;20084;-76
2023/03/15 02:20:03;;;;;;;5.13;3.15;;;10.20;59.80;;;;;;5014863;28;20390;-76
2023/03/15 02:22:43;;;;;;;5.72;3.30;;;10.20;59.70;;;;;;5015391;28;20532;-76
2023/03/15 02:25:45;;;;;;;10.68;3.75;;;10.20;59.70;;;;;;5004914;28;20390;-76
2023/03/15 02:28:13;;;;;;;4.97;3.00;;;10.20;59.60;;;;;;4982400;28;20386;-76
2023/03/15 02:30:42;;;;;;;5.35;3.15;;;10.20;59.70;;;;;;5016696;28;20464;-76
2023/03/15 02:33:38;;;;;;;6.15;2.65;;;10.20;59.60;;;;;;5017944;28;20040;-75
2023/03/15 02:36:18;;;;;;;5.47;2.72;;;10.20;59.60;;;;;;5029234;28;20114;-76
2023/03/15 02:38:45;;;;;;;8.55;3.40;;;10.20;59.60;;;;;;5018891;28;20045;-75
2023/03/15 02:41:12;;;;;;;4.53;2.88;;;10.20;59.60;;;;;;5024735;28;20033;-75
2023/03/15 02:43:39;;;;;;;3.80;2.75;;;10.20;59.70;;;;;;5017987;28;20033;-76
2023/03/15 02:46:07;;;;;;;4.38;2.92;;;10.20;59.60;;;;;;5023924;28;20033;-75
2023/03/15 02:48:36;;;;;;;4.32;3.10;;;10.20;59.90;;;;;;5023863;28;20131;-75
2023/03/15 02:51:03;;;;;;;6.93;3.50;;;10.20;59.90;;;;;;5019621;28;20037;-75
2023/03/15 02:53:30;;;;;;;7.43;3.20;;;10.20;59.70;;;;;;5027420;28;20037;-75
2023/03/15 02:55:57;;;;;;;7.13;2.72;;;10.20;59.70;;;;;;5011515;28;20041;-76
2023/03/15 02:58:23;;;;;;;4.75;3.30;;;10.20;59.60;;;;;;5039304;28;20035;-76
2023/03/15 03:00:51;;;;;;;8.02;2.40;;;10.20;59.40;;;;;;5020526;28;20036;-76
2023/03/15 03:03:18;;;;;;;8.30;3.25;;;10.20;59.60;;;;;;5032688;28;20120;-76
2023/03/15 03:05:44;;;;;;;5.63;3.00;;;10.20;59.60;;;;;;5038881;28;20037;-76
2023/03/15 03:08:10;;;;;;;7.95;3.30;;;10.20;59.50;;;;;;5012507;28;20033;-76
2023/03/15 03:10:36;;;;;;;5.65;3.00;;;10.20;59.60;;;;;;5024189;28;20116;-76
2023/03/15 03:13:02;;;;;;;4.38;2.47;;;10.20;59.60;;;;;;4995515;28;20037;-76
2023/03/15 03:15:32;;;;;;;5.22;3.00;;;10.20;59.50;;;;;;5024805;28;20041;-78
2023/03/15 03:17:58;;;;;;;5.63;3.35;;;10.20;59.40;;;;;;5037099;28;20036;-77
2023/03/15 03:20:24;;;;;;;6.82;3.10;;;10.20;59.60;;;;;;5025744;28;20048;-77
2023/03/15 03:22:50;;;;;;;5.22;2.90;;;10.20;59.60;;;;;;5020221;28;20121;-77
2023/03/15 03:25:17;;;;;;;6.20;3.30;;;10.20;59.70;;;;;;5008373;28;20132;-77
2023/03/15 03:27:45;;;;;;;6.47;3.63;;;10.20;59.80;;;;;;5021942;28;20045;-77
2023/03/15 03:30:13;;;;;;;5.03;3.30;;;10.10;59.80;;;;;;5026425;28;20055;-77
2023/03/15 03:32:43;;;;;;;4.35;2.95;;;10.20;59.70;;;;;;5012153;28;20131;-77
2023/03/15 03:35:09;;;;;;;6.60;3.53;;;10.20;59.70;;;;;;5007238;28;20250;-77
2023/03/15 03:37:35;;;;;;;5.85;2.92;;;10.20;59.70;;;;;;5021909;28;20041;-77
2023/03/15 03:40:10;;;;;;;6.85;3.20;;;10.20;59.80;;;;;;5027581;28;20083;-76
2023/03/15 03:42:37;;;;;;;8.27;3.30;;;10.20;59.80;;;;;;5011111;28;20041;-76
2023/03/15 03:45:04;;;;;;;6.40;2.97;;;10.20;59.70;;;;;;4995189;28;20155;-76
2023/03/15 03:47:35;;;;;;;5.55;3.47;;;10.20;59.70;;;;;;5021023;28;20033;-76
2023/03/15 03:50:01;;;;;;;5.43;2.85;;;10.20;59.80;;;;;;5025014;28;20033;-76
2023/03/15 03:52:27;;;;;;;7.35;3.60;;;10.20;59.70;;;;;;5026388;28;20049;-77
2023/03/15 03:54:59;;;;;;;5.10;3.60;;;10.10;59.70;;;;;;5024748;28;20526;-76
2023/03/15 03:57:25;;;;;;;5.50;3.45;;;10.20;59.70;;;;;;5026212;28;20041;-76
2023/03/15 03:59:51;;;;;;;5.07;3.05;;;10.20;59.80;;;;;;5028063;28;20037;-82
2023/03/15 04:02:17;;;;;;;7.22;2.92;;;10.10;59.60;;;;;;5008028;28;20037;-79
2023/03/15 04:04:58;;;;;;;6.75;3.30;;;10.10;59.60;;;;;;5009987;28;20376;-79
2023/03/15 04:07:24;;;;;;;5.68;3.20;;;10.20;59.70;;;;;;5022055;28;20457;-75
2023/03/15 04:09:52;;;;;;;6.45;3.05;;;10.20;60.00;;;;;;5009476;28;20866;-76
2023/03/15 04:12:18;;;;;;;6.70;3.47;;;10.20;60.20;;;;;;5017993;28;20471;-75
2023/03/15 04:14:45;;;;;;;7.93;3.70;;;10.20;60.00;;;;;;5023385;28;20068;-77
2023/03/15 04:17:12;;;;;;;6.15;3.38;;;10.20;60.10;;;;;;5025701;28;20060;-77
2023/03/15 04:19:40;;;;;;;6.60;3.40;;;10.20;60.10;;;;;;5025398;28;20060;-77
2023/03/15 04:22:09;;;;;;;5.22;3.35;;;10.20;59.90;;;;;;5024819;28;20030;-77
2023/03/15 04:24:56;;;;;;;5.28;3.60;;;10.20;60.00;;;;;;5034628;28;20069;-76
2023/03/15 04:27:40;;;;;;;8.88;3.63;;;10.20;59.90;;;;;;5036208;28;20057;-78
2023/03/15 04:30:25;;;;;;;5.57;3.17;;;10.20;59.90;;;;;;5001714;28;20059;-80
2023/03/15 04:33:23;;;;;;;8.38;3.50;;;10.20;59.90;;;;;;5015825;28;20033;-76
2023/03/15 04:36:17;;;;;;;6.40;2.97;;;10.20;59.80;;;;;;5035797;28;20044;-75
2023/03/15 04:39:03;;;;;;;6.82;3.42;;;10.20;59.90;;;;;;5003571;28;20068;-77
2023/03/15 04:42:02;;;;;;;6.22;3.15;;;10.20;59.90;;;;;;5036564;28;20048;-77
2023/03/15 04:44:57;;;;;;;6.05;3.08;;;10.20;60.80;;;;;;5029636;28;20060;-76
2023/03/15 04:47:36;;;;;;;6.28;3.50;;;10.30;61.00;;;;;;5020885;28;20578;-78
2023/03/15 04:50:22;;;;;;;4.53;2.85;;;10.30;60.70;;;;;;5036098;28;20083;-77
2023/03/15 04:53:03;;;;;;;5.85;3.42;;;10.30;60.30;;;;;;5036056;28;20137;-77
2023/03/15 04:55:59;;;;;;;6.75;3.10;;;10.30;60.10;;;;;;5023533;28;20045;-77
2023/03/15 04:58:47;;;;;;;7.90;3.25;;;10.30;59.80;;;;;;5036442;28;20041;-77
2023/03/15 05:01:45;;;;;;;7.15;3.55;;;10.30;59.60;;;;;;5034972;28;20048;-75
2023/03/15 05:04:30;;;;;;;9.50;3.85;;;10.30;59.50;;;;;;5035389;28;20038;-76
2023/03/15 05:07:13;;;;;;;7.78;3.85;;;10.30;59.70;;;;;;5020718;28;20034;-75
2023/03/15 05:09:39;;;;;;;6.63;3.70;;;10.30;59.70;;;;;;5035491;28;20036;-76
2023/03/15 05:12:28;;;;;;;7.50;3.70;;;10.30;59.60;;;;;;4944486;29;20630;-76
2023/03/15 05:15:00;;;;;;;8.32;3.95;;;10.40;59.40;;;;;;4945153;28;20442;-76
2023/03/15 05:17:47;;;;;;;;;;;10.40;60.20;;;;;;4941209;29;20079;-76
2023/03/15 05:20:32;;;;;;;8.40;3.85;;;10.40;59.50;;;;;;4944717;29;19929;-76
2023/03/15 05:23:16;;;;;;;5.20;3.08;;;10.40;59.70;;;;;;4943795;29;20403;-76
2023/03/15 05:26:00;;;;;;;5.47;3.78;;;10.40;59.60;;;;;;4930708;29;20486;-76
2023/03/15 05:28:51;;;;;;;9.13;3.88;;;10.40;59.20;;;;;;4929215;29;20415;-76
2023/03/15 05:31:48;;;;;;;8.05;3.63;;;10.40;59.00;;;;;;4929059;29;20475;-76
2023/03/15 05:34:46;;;;;;;5.57;3.42;;;10.40;58.80;;;;;;4897680;29;20031;-76
2023/03/15 05:37:26;;;;;;;7.75;3.47;;;10.40;58.60;;;;;;4912633;29;20046;-76
2023/03/15 05:40:03;;;;;;;;;;;10.40;59.20;;;;;;4912985;29;20040;-76
2023/03/15 05:42:47;;;;;;;6.13;3.40;;;10.50;58.60;;;;;;4929195;29;19990;-76
2023/03/15 05:45:37;;;;;;;5.20;3.50;;;10.50;58.60;;;;;;4926856;29;20746;-75
2023/03/15 05:48:21;;;;;;;6.70;2.95;;;10.50;58.40;;;;;;4929769;28;20069;-75
2023/03/15 05:51:03;;;;;;;8.65;4.13;;;10.60;58.30;;;;;;4985067;28;20042;-76
2023/03/15 05:53:48;;;;;;;7.00;3.53;;;10.70;58.20;;;;;;4983663;28;20073;-76
2023/03/15 05:56:41;;;;;;;5.47;3.40;;;10.70;58.60;;;;;;4966661;28;20525;-77
2023/03/15 05:59:18;;;;;;;5.00;3.05;;;10.90;58.50;;;;;;4952354;28;20038;-77
2023/03/15 06:02:04;;;;;;;;;;;10.90;58.50;;;;;;4910360;29;20032;-77
2023/03/15 06:04:38;;;;;;;4.57;2.92;;;11.00;58.10;;;;;;4910041;29;19925;-77
2023/03/15 06:07:05;;;;;;;4.65;3.15;;;11.10;58.00;;;;;;4897223;29;20126;-77
2023/03/15 06:09:32;;;;;;;4.90;2.88;;;11.20;58.10;;;;;;4882653;29;20040;-76
2023/03/15 06:11:58;;;;;;;4.90;3.35;;;11.20;58.10;;;;;;4912613;29;20482;-76
2023/03/15 06:14:26;;;;;;;4.70;3.45;;;11.30;58.30;;;;;;4899103;29;20695;-76
2023/03/15 06:16:56;;;;;;;4.70;3.65;;;11.40;58.10;;;;;;4925325;29;20040;-77
2023/03/15 06:19:24;;;;;;;6.97;3.53;;;11.50;58.00;;;;;;4897450;29;20064;-75
2023/03/15 06:21:52;;;;;;;3.88;2.92;;;11.60;57.10;;;;;;4913823;29;20031;-74
2023/03/15 06:24:28;;;;;;;;;;;11.60;57.40;;;;;;4913248;29;20027;-71
2023/03/15 06:26:55;;;;;;;7.93;3.92;;;11.80;58.30;;;;;;4930020;29;20391;-70
2023/03/15 06:29:22;;;;;;;6.88;3.90;;;11.90;59.60;;;;;;4917809;29;20047;-72
2023/03/15 06:31:49;;;;;;;7.50;3.95;;;12.00;58.10;;;;;;4924276;29;20039;-72
2023/03/15 06:34:17;;;;;;;5.82;3.75;;;12.20;57.50;;;;;;4942809;28;20093;-72
2023/03/15 06:36:44;;;;;;;7.35;4.28;;;12.30;57.00;;;;;;4947057;28;20050;-71
2023/03/15 06:39:11;;;;;;;10.80;4.30;;;12.50;56.30;;;;;;4986423;28;20136;-71
2023/03/15 06:41:40;;;;;;;8.27;4.63;;;12.60;55.50;;;;;;5025025;28;20061;-71
2023/03/15 06:44:12;;;;;;;6.13;4.30;;;12.80;55.60;;;;;;5028304;28;20033;-75
2023/03/15 06:46:39;;;;;;;6.22;3.92;;;12.90;55.60;;;;;;5011421;28;20132;-77
2023/03/15 06:49:06;;;;;;;7.55;4.40;;;13.00;52.80;;;;;;5023835;28;20037;-76
2023/03/15 06:51:32;;;;;;;9.57;4.63;;;12.90;52.60;;;;;;5028480;28;20500;-75
2023/03/15 06:53:58;;;;;;;9.48;4.25;;;13.00;53.10;;;;;;5029102;28;20033;-74
2023/03/15 06:56:24;;;;;;;9.48;4.43;;;12.90;52.30;;;;;;5026356;28;21122;-76
2023/03/15 06:58:50;;;;;;;6.85;4.28;;;12.90;52.20;;;;;;5031018;28;20555;-75
2023/03/15 07:01:16;;;;;;;6.38;4.10;;;12.90;51.30;;;;;;5037378;28;20042;-76
2023/03/15 07:03:42;;;;;;;7.57;4.50;;;12.90;50.90;;;;;;5020847;28;20033;-76
2023/03/15 07:06:08;;;;;;;7.45;4.28;;;12.80;51.60;;;;;;5021100;28;20040;-76
2023/03/15 07:08:34;;;;;;;7.78;4.07;;;12.80;51.10;;;;;;5037818;28;20389;-76
2023/03/15 07:11:02;;;;;;;7.97;4.95;;;12.80;51.10;;;;;;5037645;28;20051;-76
2023/03/15 07:13:28;;;;;;;8.48;4.53;;;12.80;51.30;;;;;;5038478;28;20034;-76
2023/03/15 07:15:55;;;;;;;7.95;4.47;;;12.80;51.80;;;;;;5022725;28;20147;-77
2023/03/15 07:18:21;;;;;;;8.10;4.20;;;12.80;51.00;;;;;;5036985;28;20038;-76
2023/03/15 07:20:58;;;;;;;5.88;4.20;;;12.80;51.10;;;;;;5037561;28;20025;-76
2023/03/15 07:23:24;;;;;;;9.45;4.32;;;12.90;51.80;;;;;;5038463;28;20080;-77
2023/03/15 07:25:50;;;;;;;7.18;4.43;;;12.90;51.70;;;;;;5038520;28;20492;-76
2023/03/15 07:28:16;;;;;;;5.55;4.60;;;12.80;51.80;;;;;;5036982;28;20061;-77
2023/03/15 07:30:50;;;;;;;6.13;4.32;;;12.90;51.60;;;;;;5037796;28;20037;-77
2023/03/15 07:33:16;;;;;;;7.20;4.68;;;12.90;51.70;;;;;;5037729;28;20041;-77
2023/03/15 07:35:42;;;;;;;8.70;4.72;;;12.80;51.40;;;;;;5021140;28;20051;-77
2023/03/15 07:38:08;;;;;;;9.02;4.57;;;12.90;51.50;;;;;;5037810;28;20030;-77
2023/03/15 07:40:34;;;;;;;10.10;5.05;;;12.90;51.80;;;;;;5023403;28;20025;-77
2023/03/15 07:43:00;;;;;;;7.97;5.10;;;12.80;51.30;;;;;;5037265;28;20030;-75
2023/03/15 07:45:25;;;;;;;10.80;5.18;;;12.90;51.90;;;;;;5026029;28;20037;-75
2023/03/15 07:47:52;;;;;;;5.97;4.25;;;12.90;51.70;;;;;;5037666;28;20122;-76
2023/03/15 07:50:18;;;;;;;7.10;5.13;;;12.90;52.00;;;;;;5036999;28;20032;-75
2023/03/15 07:52:44;;;;;;;7.30;4.80;;;12.90;51.60;;;;;;5037379;28;20090;-77
2023/03/15 07:55:10;;;;;;;7.95;4.95;;;13.00;51.90;;;;;;5022871;28;20037;-74
2023/03/15 07:57:35;;;;;;;6.65;4.60;;;13.00;52.20;;;;;;5038705;28;20401;-73
2023/03/15 08:00:03;;;;;;;8.27;5.15;;;13.00;51.70;;;;;;5037307;28;20153;-73
2023/03/15 08:02:38;;;;;;;9.60;4.70;;;13.00;52.30;;;;;;5026315;28;20037;-74
2023/03/15 08:05:05;;;;;;;7.70;4.30;;;13.00;52.10;;;;;;5043076;28;20041;-73
2023/03/15 08:07:31;;;;;;;9.27;4.90;;;13.00;51.90;;;;;;5044119;28;20049;-73
2023/03/15 08:09:57;;;;;;;7.22;4.65;;;13.00;51.70;;;;;;5037971;28;20041;-72
2023/03/15 08:12:23;;;;;;;7.55;4.70;;;13.00;51.80;;;;;;5037844;28;20037;-73
2023/03/15 08:14:50;;;;;;;8.85;4.90;;;12.90;51.70;;;;;;5046520;28;20037;-73
2023/03/15 08:17:16;;;;;;;6.97;4.88;;;12.90;51.70;;;;;;5044351;28;20512;-73
2023/03/15 08:19:43;;;;;;;8.43;4.95;;;12.80;52.10;;;;;;5036829;28;20029;-74
2023/03/15 08:22:10;;;;;;;10.40;4.72;;;12.90;52.30;;;;;;5037417;28;20041;-73
2023/03/15 08:24:36;;;;;;;6.93;4.82;;;12.90;52.30;;;;;;5018687;28;20536;-73
2023/03/15 08:27:03;;;;;;;7.18;4.65;;;12.90;52.40;;;;;;5037606;28;20041;-73
2023/03/15 08:29:30;;;;;;;8.25;5.10;;;12.90;53.00;;;;;;5036435;28;20053;-74
2023/03/15 08:31:56;;;;;;;12.57;5.28;;;12.90;52.80;;;;;;5035911;28;20132;-74
2023/03/15 08:34:23;;;;;;;7.78;5.30;;;12.90;52.80;;;;;;5022503;28;20037;-73
2023/03/15 08:36:49;;;;;;;7.35;4.88;;;12.90;53.30;;;;;;5024386;28;20045;-72
2023/03/15 08:39:16;;;;;;;7.28;5.20;;;12.90;53.40;;;;;;5021389;28;20419;-73
2023/03/15 08:41:42;;;;;;;8.68;4.97;;;12.90;53.20;;;;;;5036884;28;20074;-74
2023/03/15 08:44:09;;;;;;;7.88;5.03;;;12.90;53.00;;;;;;5024455;28;20475;-74
2023/03/15 08:46:35;;;;;;;8.80;5.05;;;12.90;53.10;;;;;;5019470;28;20044;-74
2023/03/15 08:49:01;;;;;;;7.60;5.07;;;12.90;53.10;;;;;;5021236;28;20036;-74
2023/03/15 08:51:29;;;;;;;6.60;5.40;;;12.80;52.90;;;;;;5035453;28;20032;-74
2023/03/15 08:53:55;;;;;;;8.02;4.97;;;12.80;52.60;;;;;;5035820;28;20040;-74
2023/03/15 08:56:21;;;;;;;6.05;5.40;;;12.80;52.60;;;;;;5035801;28;20407;-74
2023/03/15 08:58:47;;;;;;;11.45;6.25;;;12.80;52.90;;;;;;5036582;28;20040;-74
2023/03/15 09:01:14;;;;;;;7.75;5.50;;;12.80;52.70;;;;;;5035427;28;20033;-74
2023/03/15 09:03:41;;;;;;;5.85;5.05;;;12.80;52.50;;;;;;5024209;28;20037;-75
2023/03/15 09:06:08;;;;;;;6.63;5.20;;;12.80;52.80;;;;;;5036465;28;20407;-75
2023/03/15 09:08:34;;;;;;;6.45;5.47;;;12.70;52.80;;;;;;5020553;28;20118;-75
2023/03/15 09:11:00;;;;;;;7.28;5.40;;;12.70;52.70;;;;;;5035293;28;20429;-75
2023/03/15 09:13:27;;;;;;;5.53;4.93;;;12.70;52.80;;;;;;5006992;28;20503;-73
2023/03/15 09:15:54;;;;;;;6.80;5.35;;;12.70;53.00;;;;;;5025073;28;20373;-74
2023/03/15 09:18:21;;;;;;;6.75;5.07;;;12.70;53.00;;;;;;5033873;28;20028;-74
2023/03/15 09:20:48;;;;;;;6.45;4.97;;;12.60;53.40;;;;;;5036004;28;20392;-74
2023/03/15 09:23:14;;;;;;;6.22;5.10;;;12.60;53.30;;;;;;5036269;28;20030;-74
2023/03/15 09:25:40;;;;;;;9.30;6.30;;;12.60;53.50;;;;;;5036051;28;20032;-74
2023/03/15 09:28:10;;;;;;;8.90;5.75;;;12.60;53.20;;;;;;5035002;28;20033;-74
2023/03/15 09:30:37;;;;;;;7.75;5.85;;;12.60;53.30;;;;;;5005682;28;20048;-73
2023/03/15 09:33:03;;;;;;;6.55;5.30;;;12.60;53.00;;;;;;5015477;28;20472;-74
2023/03/15 09:35:30;;;;;;;7.10;5.78;;;12.60;53.20;;;;;;5015881;28;20057;-72
2023/03/15 09:37:56;;;;;;;8.93;5.68;;;12.60;53.30;;;;;;5014852;28;20061;-72
2023/03/15 09:40:24;;;;;;;6.72;5.40;;;12.50;53.60;;;;;;5015074;28;20033;-75
2023/03/15 09:43:12;;;;;;;7.05;5.25;;;12.50;53.60;;;;;;5020996;28;20416;-77
2023/03/15 09:46:22;;;;;;;7.47;5.72;;;12.50;53.70;;;;;;5014527;28;20038;-75
2023/03/15 09:48:48;;;;;;;7.97;5.20;;;12.50;53.70;;;;;;5014832;28;20213;-74
2023/03/15 09:51:38;;;;;;;8.15;5.32;;;12.50;54.10;;;;;;5004621;28;20231;-74
2023/03/15 09:54:09;;;;;;;10.07;5.35;;;12.50;54.20;;;;;;5018487;28;20403;-74
2023/03/15 09:57:09;;;;;;;9.23;5.55;;;12.50;54.70;;;;;;5017408;28;20520;-74
2023/03/15 09:59:39;;;;;;;10.32;7.78;;;12.50;54.60;;;;;;5012168;28;20041;-73
2023/03/15 10:02:29;;;;;;;10.52;6.68;;;12.40;54.60;;;;;;5017391;28;20124;-74
2023/03/15 10:05:12;;;;;;;7.38;5.65;;;12.40;54.90;;;;;;5014682;28;20034;-74
2023/03/15 10:07:38;;;;;;;7.47;4.90;;;12.40;54.90;;;;;;5019116;28;20065;-75
2023/03/15 10:10:13;;;;;;;9.93;5.65;;;12.40;55.20;;;;;;5015269;28;20484;-74
2023/03/15 10:12:42;;;;;;;8.10;5.75;;;12.40;54.90;;;;;;5015732;28;20418;-74
2023/03/15 10:15:26;;;;;;;7.47;5.43;;;12.40;54.80;;;;;;5015990;28;20108;-74
2023/03/15 10:17:58;;;;;;;6.32;5.63;;;12.40;54.90;;;;;;5013737;28;20052;-73
2023/03/15 10:20:50;;;;;;;7.63;5.63;;;12.40;54.90;;;;;;5015341;28;20096;-74
2023/03/15 10:23:48;;;;;;;7.13;5.82;;;12.40;55.20;;;;;;5014652;28;20034;-74
2023/03/15 10:26:20;;;;;;;7.55;5.85;;;12.40;55.40;;;;;;5014560;28;20045;-74
2023/03/15 10:28:46;;;;;;;7.88;5.65;;;12.40;55.30;;;;;;5001513;28;20054;-74
2023/03/15 10:31:17;;;;;;;7.88;5.72;;;12.40;55.50;;;;;;5015088;28;20067;-74
2023/03/15 10:33:44;;;;;;;7.63;5.57;;;12.40;55.50;;;;;;5014573;28;20044;-73
2023/03/15 10:36:16;;;;;;;6.40;5.35;;;12.40;55.50;;;;;;5014766;28;20639;-73
2023/03/15 10:38:43;;;;;;;10.10;5.85;;;12.40;55.60;;;;;;5016026;28;20046;-74
2023/03/15 10:41:13;;;;;;;8.10;5.72;;;12.40;55.50;;;;;;5017309;28;20119;-75
2023/03/15 10:43:40;;;;;;;8.35;5.65;;;12.40;55.30;;;;;;5015077;28;20037;-73
2023/03/15 10:46:10;;;;;;;7.32;5.57;;;12.40;55.20;;;;;;5014978;28;20415;-73
2023/03/15 10:48:54;;;;;;;8.10;5.63;;;12.40;55.30;;;;;;5013384;28;20524;-74
2023/03/15 10:51:24;;;;;;;6.85;5.18;;;12.40;55.40;;;;;;5018283;28;20026;-73
2023/03/15 10:54:05;;;;;;;8.13;5.53;;;12.40;55.30;;;;;;5014793;28;20188;-73
2023/03/15 10:56:37;;;;;;;9.38;5.47;;;12.40;55.30;;;;;;5019110;28;20404;-73
2023/03/15 10:59:13;;;;;;;6.15;5.38;;;12.30;55.10;;;;;;5014729;28;20123;-73
2023/03/15 11:01:39;;;;;;;9.10;5.53;;;12.40;55.20;;;;;;5020468;28;20048;-73
2023/03/15 11:04:18;;;;;;;6.53;5.55;;;12.40;55.40;;;;;;5014308;28;20037;-73
2023/03/15 11:06:48;;;;;;;7.78;5.45;;;12.40;55.30;;;;;;5015216;28;20038;-73
2023/03/15 11:09:17;;;;;;;9.25;5.25;;;12.40;55.30;;;;;;5014459;28;20035;-73
2023/03/15 11:11:52;;;;;;;5.78;4.95;;;12.30;55.60;;;;;;5014957;28;20059;-73
2023/03/15 11:14:19;;;;;;;8.23;5.57;;;12.30;55.70;;;;;;5018796;28;20037;-73
2023/03/15 11:16:52;;;;;;;7.65;5.40;;;12.30;55.50;;;;;;5017942;28;20200;-73
2023/03/15 11:19:22;;;;;;;8.38;5.57;;;12.30;55.60;;;;;;5017858;28;20109;-73
2023/03/15 11:21:50;;;;;;;7.90;5.70;;;12.30;55.90;;;;;;5018309;28;20121;-73
2023/03/15 11:24:24;;;;;;;6.57;5.38;;;12.30;55.70;;;;;;5023481;28;20036;-74
2023/03/15 11:26:53;;;;;;;7.47;5.32;;;12.30;55.70;;;;;;5018341;28;20500;-74
2023/03/15 11:29:27;;;;;;;6.15;4.88;;;12.30;56.30;;;;;;5026366;28;20064;-74
2023/03/15 11:31:54;;;;;;;7.00;4.88;;;12.30;55.60;;;;;;5025200;28;20045;-74
2023/03/15 11:34:40;;;;;;;5.60;5.00;;;12.30;55.80;;;;;;5023039;28;20124;-74
2023/03/15 11:37:12;;;;;;;6.28;4.82;;;12.30;55.90;;;;;;5037319;28;20095;-74
2023/03/15 11:39:54;;;;;;;6.00;5.30;;;12.30;56.20;;;;;;5037592;28;20044;-74
2023/03/15 11:42:37;;;;;;;5.65;4.72;;;12.30;56.10;;;;;;5036861;28;20557;-74
2023/03/15 11:45:26;;;;;;;7.13;5.30;;;12.30;56.20;;;;;;5037615;28;20464;-74
2023/03/15 11:47:57;;;;;;;7.85;5.40;;;12.30;55.90;;;;;;4966896;28;20133;-77
2023/03/15 11:50:23;;;;;;;5.65;4.95;;;12.30;55.90;;;;;;4983389;28;20038;-78
2023/03/15 11:52:50;;;;;;;7.55;5.28;;;12.30;56.00;;;;;;4980736;28;20093;-81
2023/03/15 11:55:23;;;;;;;6.00;5.40;;;12.30;56.20;;;;;;4950169;28;20553;-79
2023/03/15 11:57:50;;;;;;;7.22;5.85;;;12.30;56.10;;;;;;4951543;28;20069;-77
2023/03/15 12:00:34;;;;;;;7.53;5.13;;;12.30;56.10;;;;;;4967311;28;20058;-80
2023/03/15 12:03:29;;;;;;;7.43;5.22;;;12.30;56.20;;;;;;4980804;28;20034;-77
2023/03/15 12:06:03;;;;;;;9.00;5.57;;;12.30;56.40;;;;;;4986488;28;20072;-77
2023/03/15 12:08:34;;;;;;;6.03;5.43;;;12.20;56.50;;;;;;4972860;28;20592;-77
2023/03/15 12:11:01;;;;;;;8.82;5.00;;;12.20;56.60;;;;;;4980922;28;20513;-76
2023/03/15 12:13:29;;;;;;;7.05;5.20;;;12.30;56.70;;;;;;4986541;28;20042;-77
2023/03/15 12:15:56;;;;;;;7.05;5.10;;;12.20;56.70;;;;;;4989649;28;20038;-76
2023/03/15 12:18:30;;;;;;;6.10;4.65;;;12.20;56.80;;;;;;4969360;28;20130;-75
2023/03/15 12:21:30;;;;;;;7.13;5.47;;;12.20;56.90;;;;;;4984225;28;20037;-76
2023/03/15 12:24:06;;;;;;;6.53;5.35;;;12.20;56.60;;;;;;4993103;28;20140;-77
2023/03/15 12:26:40;;;;;;;7.07;5.30;;;12.20;56.90;;;;;;5009463;28;20528;-76
2023/03/15 12:29:24;;;;;;;7.03;4.82;;;12.20;56.80;;;;;;5033621;28;20454;-74
2023/03/15 12:31:59;;;;;;;8.48;5.15;;;12.10;56.90;;;;;;5045761;28;20487;-73
2023/03/15 12:34:46;;;;;;;6.45;4.78;;;12.20;56.60;;;;;;5036382;28;20041;-77
2023/03/15 12:37:31;;;;;;;5.90;4.80;;;12.20;56.80;;;;;;5035956;28;20037;-73
2023/03/15 12:40:19;;;;;;;6.88;5.40;;;12.10;56.80;;;;;;5036755;28;20040;-74
2023/03/15 12:42:45;;;;;;;6.13;4.78;;;12.10;57.20;;;;;;5031181;28;20033;-73
2023/03/15 12:45:17;;;;;;;6.38;4.90;;;12.10;57.10;;;;;;5018186;28;20030;-73
2023/03/15 12:48:11;;;;;;;6.60;5.30;;;12.10;57.20;;;;;;5028779;28;20443;-73
2023/03/15 12:50:43;;;;;;;7.20;5.18;;;12.10;57.20;;;;;;5042506;28;20116;-74
2023/03/15 12:53:35;;;;;;;6.70;4.65;;;12.00;57.10;;;;;;5014725;28;20067;-73
2023/03/15 12:56:17;;;;;;;5.63;4.97;;;12.00;57.10;;;;;;5050840;28;20523;-73
2023/03/15 12:58:47;;;;;;;5.97;4.32;;;12.00;57.00;;;;;;5041914;28;20029;-76
2023/03/15 13:01:16;;;;;;;7.30;4.80;;;12.10;59.70;;;;;;5038254;28;20326;-74
2023/03/15 13:03:42;;;;;;;5.90;4.35;;;12.10;59.60;;;;;;5031734;28;20040;-75
2023/03/15 13:06:29;;;;;;;7.90;5.25;;;12.10;59.00;;;;;;5037164;28;20486;-75
2023/03/15 13:09:07;;;;;;;6.22;5.13;;;12.10;57.80;;;;;;5030873;28;20099;-76
2023/03/15 13:11:51;;;;;;;5.50;4.93;;;12.10;57.50;;;;;;5023924;28;20849;-76
2023/03/15 13:14:39;;;;;;;6.10;4.78;;;12.10;57.40;;;;;;5013680;28;20044;-80
2023/03/15 13:17:16;;;;;;;5.10;3.80;;;12.10;57.10;;;;;;5031513;28;20060;-76